sensor_id;sensor_type;location;lat;lon;timestamp;temperature;humidity
41985;DHT22;28319;48.116;10.818;2022-10-17T00:04:47;14.10;99.90
41985;DHT22;28319;48.116;10.818;2022-10-17T00:09:49;14.20;99.90
41985;DHT22;28319;48.116;10.818;2022-10-17T00:14:51;14.10;99.90
41985;DHT22;28319;48.116;10.818;2022-10-17T00:19:54;14.00;99.90
41985;DHT22;28319;48.116;10.818;2022-10-17T00:24:56;13.90;99.90
41985;DHT22;28319;48.116;10.818;2022-10-17T00:29:58;13.90;99.90
41985;DHT22;28319;48.116;10.818;2022-10-17T00:35:04;13.80;99.90
41985;DHT22;28319;48.116;10.818;2022-10-17T00:40:08;13.90;99.90
41985;DHT22;28319;48.116;10.818;2022-10-17T00:45:20;13.90;99.90
41985;DHT22;28319;48.116;10.818;2022-10-17T00:50:24;13.70;99.90
41985;DHT22;28319;48.116;10.818;2022-10-17T00:55:28;13.60;99.90
41985;DHT22;28319;48.116;10.818;2022-10-17T01:00:31;13.50;99.90
41985;DHT22;28319;48.116;10.818;2022-10-17T01:05:36;13.50;99.90
41985;DHT22;28319;48.116;10.818;2022-10-17T01:10:44;13.50;99.90
41985;DHT22;28319;48.116;10.818;2022-10-17T01:15:58;13.40;99.90
41985;DHT22;28319;48.116;10.818;2022-10-17T01:21:15;13.20;99.90
41985;DHT22;28319;48.116;10.818;2022-10-17T01:26:24;13.30;99.90
41985;DHT22;28319;48.116;10.818;2022-10-17T01:31:33;13.40;99.90
41985;DHT22;28319;48.116;10.818;2022-10-17T01:36:47;13.30;99.90
41985;DHT22;28319;48.116;10.818;2022-10-17T01:41:54;13.20;99.90
41985;DHT22;28319;48.116;10.818;2022-10-17T01:47:03;13.20;99.90
41985;DHT22;28319;48.116;10.818;2022-10-17T01:52:09;13.00;99.90
41985;DHT22;28319;48.116;10.818;2022-10-17T01:57:16;12.90;99.90
41985;DHT22;28319;48.116;10.818;2022-10-17T02:02:22;12.70;99.90
41985;DHT22;28319;48.116;10.818;2022-10-17T02:07:25;12.70;99.90
41985;DHT22;28319;48.116;10.818;2022-10-17T02:12:36;12.70;99.90
41985;DHT22;28319;48.116;10.818;2022-10-17T02:17:49;12.50;99.90
41985;DHT22;28319;48.116;10.818;2022-10-17T02:22:59;12.60;99.90
41985;DHT22;28319;48.116;10.818;2022-10-17T02:28:12;12.70;99.90
41985;DHT22;28319;48.116;10.818;2022-10-17T02:33:20;12.70;99.90
41985;DHT22;28319;48.116;10.818;2022-10-17T02:38:24;12.70;99.90
41985;DHT22;28319;48.116;10.818;2022-10-17T02:43:28;12.60;99.90
41985;DHT22;28319;48.116;10.818;2022-10-17T02:48:36;12.40;99.90
41985;DHT22;28319;48.116;10.818;2022-10-17T02:53:46;12.30;99.90
41985;DHT22;28319;48.116;10.818;2022-10-17T02:58:54;12.40;99.90
41985;DHT22;28319;48.116;10.818;2022-10-17T03:04:14;12.40;99.90
41985;DHT22;28319;48.116;10.818;2022-10-17T03:09:17;12.30;99.90
41985;DHT22;28319;48.116;10.818;2022-10-17T03:14:19;12.20;99.90
41985;DHT22;28319;48.116;10.818;2022-10-17T03:19:23;12.30;99.90
41985;DHT22;28319;48.116;10.818;2022-10-17T03:24:25;12.30;99.90
41985;DHT22;28319;48.116;10.818;2022-10-17T03:29:27;12.20;99.90
41985;DHT22;28319;48.116;10.818;2022-10-17T03:34:31;12.20;99.90
41985;DHT22;28319;48.116;10.818;2022-10-17T03:39:33;12.10;99.90
41985;DHT22;28319;48.116;10.818;2022-10-17T03:44:35;12.10;99.90
41985;DHT22;28319;48.116;10.818;2022-10-17T03:49:38;12.00;99.90
41985;DHT22;28319;48.116;10.818;2022-10-17T03:54:41;11.90;99.90
41985;DHT22;28319;48.116;10.818;2022-10-17T03:59:43;11.70;99.90
41985;DHT22;28319;48.116;10.818;2022-10-17T04:04:47;11.70;99.90
41985;DHT22;28319;48.116;10.818;2022-10-17T04:09:48;11.70;99.90
41985;DHT22;28319;48.116;10.818;2022-10-17T04:14:51;11.70;99.90
41985;DHT22;28319;48.116;10.818;2022-10-17T04:19:54;11.50;99.90
41985;DHT22;28319;48.116;10.818;2022-10-17T04:24:56;11.50;99.90
41985;DHT22;28319;48.116;10.818;2022-10-17T04:29:58;11.40;99.90
41985;DHT22;28319;48.116;10.818;2022-10-17T04:35:02;11.30;99.90
41985;DHT22;28319;48.116;10.818;2022-10-17T04:40:05;11.20;99.90
41985;DHT22;28319;48.116;10.818;2022-10-17T04:45:08;11.30;99.90
41985;DHT22;28319;48.116;10.818;2022-10-17T04:50:12;11.30;99.90
41985;DHT22;28319;48.116;10.818;2022-10-17T04:55:14;11.30;99.90
41985;DHT22;28319;48.116;10.818;2022-10-17T05:00:17;11.30;99.90
41985;DHT22;28319;48.116;10.818;2022-10-17T05:05:20;11.20;99.90
41985;DHT22;28319;48.116;10.818;2022-10-17T05:10:23;11.20;99.90
41985;DHT22;28319;48.116;10.818;2022-10-17T05:15:25;11.30;99.90
41985;DHT22;28319;48.116;10.818;2022-10-17T05:20:29;11.20;99.90
41985;DHT22;28319;48.116;10.818;2022-10-17T05:25:31;11.10;99.90
41985;DHT22;28319;48.116;10.818;2022-10-17T05:30:33;11.00;99.90
41985;DHT22;28319;48.116;10.818;2022-10-17T05:35:37;10.90;99.90
41985;DHT22;28319;48.116;10.818;2022-10-17T05:40:39;10.80;99.90
41985;DHT22;28319;48.116;10.818;2022-10-17T05:45:41;10.90;99.90
41985;DHT22;28319;48.116;10.818;2022-10-17T05:50:45;10.80;99.90
41985;DHT22;28319;48.116;10.818;2022-10-17T05:55:55;10.80;99.90
41985;DHT22;28319;48.116;10.818;2022-10-17T06:00:58;10.80;99.90
41985;DHT22;28319;48.116;10.818;2022-10-17T06:06:06;10.80;99.90
41985;DHT22;28319;48.116;10.818;2022-10-17T06:11:08;10.70;99.90
41985;DHT22;28319;48.116;10.818;2022-10-17T06:16:10;10.80;99.90
41985;DHT22;28319;48.116;10.818;2022-10-17T06:21:17;10.80;99.90
41985;DHT22;28319;48.116;10.818;2022-10-17T06:26:20;10.80;99.90
41985;DHT22;28319;48.116;10.818;2022-10-17T06:31:22;10.80;99.90
41985;DHT22;28319;48.116;10.818;2022-10-17T06:36:26;10.90;99.90
41985;DHT22;28319;48.116;10.818;2022-10-17T06:41:28;10.90;99.90
41985;DHT22;28319;48.116;10.818;2022-10-17T06:46:30;10.90;99.90
41985;DHT22;28319;48.116;10.818;2022-10-17T06:51:36;11.00;99.90
41985;DHT22;28319;48.116;10.818;2022-10-17T06:56:38;11.10;99.90
41985;DHT22;28319;48.116;10.818;2022-10-17T07:01:41;11.20;99.90
41985;DHT22;28319;48.116;10.818;2022-10-17T07:06:44;11.30;99.90
41985;DHT22;28319;48.116;10.818;2022-10-17T07:11:46;11.30;99.90
41985;DHT22;28319;48.116;10.818;2022-10-17T07:16:48;11.50;99.90
41985;DHT22;28319;48.116;10.818;2022-10-17T07:21:52;11.70;99.90
41985;DHT22;28319;48.116;10.818;2022-10-17T07:26:54;11.90;99.90
41985;DHT22;28319;48.116;10.818;2022-10-17T07:31:56;12.10;99.90
41985;DHT22;28319;48.116;10.818;2022-10-17T07:37:00;12.20;99.90
41985;DHT22;28319;48.116;10.818;2022-10-17T07:42:03;12.30;99.90
41985;DHT22;28319;48.116;10.818;2022-10-17T07:47:07;12.50;99.90
41985;DHT22;28319;48.116;10.818;2022-10-17T07:52:11;12.70;99.90
41985;DHT22;28319;48.116;10.818;2022-10-17T07:57:13;12.80;99.90
41985;DHT22;28319;48.116;10.818;2022-10-17T08:02:20;13.00;99.90
41985;DHT22;28319;48.116;10.818;2022-10-17T08:07:24;13.20;99.90
41985;DHT22;28319;48.116;10.818;2022-10-17T08:12:27;13.40;99.90
41985;DHT22;28319;48.116;10.818;2022-10-17T08:17:33;13.60;99.90
41985;DHT22;28319;48.116;10.818;2022-10-17T08:22:37;13.80;99.90
41985;DHT22;28319;48.116;10.818;2022-10-17T08:27:39;14.10;99.90
41985;DHT22;28319;48.116;10.818;2022-10-17T08:32:41;14.20;99.90
41985;DHT22;28319;48.116;10.818;2022-10-17T08:37:44;14.40;99.90
41985;DHT22;28319;48.116;10.818;2022-10-17T08:43:01;14.60;99.90
41985;DHT22;28319;48.116;10.818;2022-10-17T08:48:12;14.80;99.90
41985;DHT22;28319;48.116;10.818;2022-10-17T08:53:18;15.20;99.90
41985;DHT22;28319;48.116;10.818;2022-10-17T08:58:23;15.60;99.90
41985;DHT22;28319;48.116;10.818;2022-10-17T09:03:42;15.90;99.90
41985;DHT22;28319;48.116;10.818;2022-10-17T09:08:55;16.20;99.90
41985;DHT22;28319;48.116;10.818;2022-10-17T09:14:08;16.50;99.90
41985;DHT22;28319;48.116;10.818;2022-10-17T09:19:18;16.70;99.90
41985;DHT22;28319;48.116;10.818;2022-10-17T09:24:36;17.10;99.90
41985;DHT22;28319;48.116;10.818;2022-10-17T09:29:39;17.40;99.90
41985;DHT22;28319;48.116;10.818;2022-10-17T09:34:42;17.70;99.90
41985;DHT22;28319;48.116;10.818;2022-10-17T09:39:46;17.90;99.90
41985;DHT22;28319;48.116;10.818;2022-10-17T09:44:53;18.20;99.90
41985;DHT22;28319;48.116;10.818;2022-10-17T09:49:56;18.40;99.90
41985;DHT22;28319;48.116;10.818;2022-10-17T09:55:03;18.70;99.90
41985;DHT22;28319;48.116;10.818;2022-10-17T10:00:12;19.10;99.90
41985;DHT22;28319;48.116;10.818;2022-10-17T10:05:20;19.40;99.90
41985;DHT22;28319;48.116;10.818;2022-10-17T10:10:26;19.80;99.90
41985;DHT22;28319;48.116;10.818;2022-10-17T10:15:34;20.10;99.90
41985;DHT22;28319;48.116;10.818;2022-10-17T10:20:37;20.40;99.90
41985;DHT22;28319;48.116;10.818;2022-10-17T10:26:04;20.70;99.90
41985;DHT22;28319;48.116;10.818;2022-10-17T10:31:07;20.90;99.90
41985;DHT22;28319;48.116;10.818;2022-10-17T10:36:10;21.10;99.10
41985;DHT22;28319;48.116;10.818;2022-10-17T10:41:14;21.30;99.40
41985;DHT22;28319;48.116;10.818;2022-10-17T10:46:18;21.50;99.90
41985;DHT22;28319;48.116;10.818;2022-10-17T10:51:23;21.60;98.10
41985;DHT22;28319;48.116;10.818;2022-10-17T10:56:33;21.90;99.10
41985;DHT22;28319;48.116;10.818;2022-10-17T11:01:44;22.20;96.50
41985;DHT22;28319;48.116;10.818;2022-10-17T11:06:51;22.20;96.20
41985;DHT22;28319;48.116;10.818;2022-10-17T11:11:59;22.30;95.50
41985;DHT22;28319;48.116;10.818;2022-10-17T11:17:07;22.30;95.80
41985;DHT22;28319;48.116;10.818;2022-10-17T11:22:15;22.60;94.90
41985;DHT22;28319;48.116;10.818;2022-10-17T11:27:18;22.90;95.30
41985;DHT22;28319;48.116;10.818;2022-10-17T11:32:23;22.90;95.10
41985;DHT22;28319;48.116;10.818;2022-10-17T11:37:30;23.10;94.40
41985;DHT22;28319;48.116;10.818;2022-10-17T11:42:38;23.30;93.00
41985;DHT22;28319;48.116;10.818;2022-10-17T11:47:44;23.50;94.40
41985;DHT22;28319;48.116;10.818;2022-10-17T11:52:51;23.50;95.40
41985;DHT22;28319;48.116;10.818;2022-10-17T12:03:47;23.30;92.80
41985;DHT22;28319;48.116;10.818;2022-10-17T12:13:57;23.00;92.30
41985;DHT22;28319;48.116;10.818;2022-10-17T12:19:27;23.40;91.30
41985;DHT22;28319;48.116;10.818;2022-10-17T12:24:43;23.60;91.90
41985;DHT22;28319;48.116;10.818;2022-10-17T12:29:48;23.80;91.70
41985;DHT22;28319;48.116;10.818;2022-10-17T12:34:51;23.70;91.60
41985;DHT22;28319;48.116;10.818;2022-10-17T12:39:53;23.60;90.10
41985;DHT22;28319;48.116;10.818;2022-10-17T12:44:57;23.40;90.40
41985;DHT22;28319;48.116;10.818;2022-10-17T12:49:59;23.30;91.90
41985;DHT22;28319;48.116;10.818;2022-10-17T12:55:09;23.30;93.40
41985;DHT22;28319;48.116;10.818;2022-10-17T13:00:20;23.10;92.20
41985;DHT22;28319;48.116;10.818;2022-10-17T13:05:26;23.20;92.60
41985;DHT22;28319;48.116;10.818;2022-10-17T13:10:32;23.40;91.90
41985;DHT22;28319;48.116;10.818;2022-10-17T13:15:36;23.40;92.30
41985;DHT22;28319;48.116;10.818;2022-10-17T13:20:38;23.60;92.30
41985;DHT22;28319;48.116;10.818;2022-10-17T13:25:40;23.70;92.40
41985;DHT22;28319;48.116;10.818;2022-10-17T13:30:46;23.60;93.10
41985;DHT22;28319;48.116;10.818;2022-10-17T13:35:48;23.80;92.40
41985;DHT22;28319;48.116;10.818;2022-10-17T13:40:50;23.80;92.90
41985;DHT22;28319;48.116;10.818;2022-10-17T13:45:56;23.80;92.90
41985;DHT22;28319;48.116;10.818;2022-10-17T13:51:02;24.00;93.50
41985;DHT22;28319;48.116;10.818;2022-10-17T13:56:15;23.90;93.00
41985;DHT22;28319;48.116;10.818;2022-10-17T14:01:20;24.00;93.10
41985;DHT22;28319;48.116;10.818;2022-10-17T14:06:23;24.10;91.90
41985;DHT22;28319;48.116;10.818;2022-10-17T14:11:32;24.00;91.30
41985;DHT22;28319;48.116;10.818;2022-10-17T14:16:38;24.00;89.40
41985;DHT22;28319;48.116;10.818;2022-10-17T14:21:41;23.60;90.10
41985;DHT22;28319;48.116;10.818;2022-10-17T14:26:50;23.70;90.30
41985;DHT22;28319;48.116;10.818;2022-10-17T14:32:02;23.70;91.60
41985;DHT22;28319;48.116;10.818;2022-10-17T14:37:08;23.60;90.10
41985;DHT22;28319;48.116;10.818;2022-10-17T14:42:17;23.60;91.30
41985;DHT22;28319;48.116;10.818;2022-10-17T14:47:24;23.50;91.20
41985;DHT22;28319;48.116;10.818;2022-10-17T14:52:29;23.30;92.70
41985;DHT22;28319;48.116;10.818;2022-10-17T14:57:42;23.10;92.40
41985;DHT22;28319;48.116;10.818;2022-10-17T15:02:46;23.00;92.80
41985;DHT22;28319;48.116;10.818;2022-10-17T15:07:48;22.90;91.50
41985;DHT22;28319;48.116;10.818;2022-10-17T15:12:51;22.90;92.90
41985;DHT22;28319;48.116;10.818;2022-10-17T15:17:54;22.80;93.80
41985;DHT22;28319;48.116;10.818;2022-10-17T15:22:58;22.70;93.10
41985;DHT22;28319;48.116;10.818;2022-10-17T15:28:00;22.60;96.10
41985;DHT22;28319;48.116;10.818;2022-10-17T15:33:03;22.50;95.60
41985;DHT22;28319;48.116;10.818;2022-10-17T15:38:07;22.40;97.00
41985;DHT22;28319;48.116;10.818;2022-10-17T15:43:09;22.30;97.60
41985;DHT22;28319;48.116;10.818;2022-10-17T15:48:17;22.30;98.40
41985;DHT22;28319;48.116;10.818;2022-10-17T15:53:20;22.10;98.20
41985;DHT22;28319;48.116;10.818;2022-10-17T15:58:23;21.80;98.90
41985;DHT22;28319;48.116;10.818;2022-10-17T16:03:29;21.70;99.60
41985;DHT22;28319;48.116;10.818;2022-10-17T16:08:31;21.50;99.90
41985;DHT22;28319;48.116;10.818;2022-10-17T16:13:33;21.50;99.90
41985;DHT22;28319;48.116;10.818;2022-10-17T16:18:37;21.30;99.90
41985;DHT22;28319;48.116;10.818;2022-10-17T16:23:39;21.00;99.90
41985;DHT22;28319;48.116;10.818;2022-10-17T16:28:41;20.90;99.90
41985;DHT22;28319;48.116;10.818;2022-10-17T16:33:45;20.90;99.90
41985;DHT22;28319;48.116;10.818;2022-10-17T16:38:48;20.90;99.90
41985;DHT22;28319;48.116;10.818;2022-10-17T16:43:52;20.90;99.90
41985;DHT22;28319;48.116;10.818;2022-10-17T16:48:58;20.80;99.90
41985;DHT22;28319;48.116;10.818;2022-10-17T16:54:00;20.70;99.90
41985;DHT22;28319;48.116;10.818;2022-10-17T16:59:02;20.40;99.90
41985;DHT22;28319;48.116;10.818;2022-10-17T17:04:05;20.30;99.90
41985;DHT22;28319;48.116;10.818;2022-10-17T17:09:09;20.10;99.90
41985;DHT22;28319;48.116;10.818;2022-10-17T17:14:11;20.00;99.90
41985;DHT22;28319;48.116;10.818;2022-10-17T17:19:15;19.90;99.90
41985;DHT22;28319;48.116;10.818;2022-10-17T17:24:18;19.60;99.90
41985;DHT22;28319;48.116;10.818;2022-10-17T17:29:22;19.10;99.90
41985;DHT22;28319;48.116;10.818;2022-10-17T17:34:25;19.10;99.90
41985;DHT22;28319;48.116;10.818;2022-10-17T17:39:28;19.10;99.90
41985;DHT22;28319;48.116;10.818;2022-10-17T17:44:30;18.90;99.90
41985;DHT22;28319;48.116;10.818;2022-10-17T17:49:34;18.70;99.90
41985;DHT22;28319;48.116;10.818;2022-10-17T17:54:36;18.50;99.90
41985;DHT22;28319;48.116;10.818;2022-10-17T17:59:38;18.40;99.90
41985;DHT22;28319;48.116;10.818;2022-10-17T18:04:42;18.30;99.90
41985;DHT22;28319;48.116;10.818;2022-10-17T18:09:44;18.20;99.90
41985;DHT22;28319;48.116;10.818;2022-10-17T18:14:47;18.10;99.90
41985;DHT22;28319;48.116;10.818;2022-10-17T18:19:51;17.90;99.90
41985;DHT22;28319;48.116;10.818;2022-10-17T18:24:53;17.80;99.90
41985;DHT22;28319;48.116;10.818;2022-10-17T18:29:55;17.60;99.90
41985;DHT22;28319;48.116;10.818;2022-10-17T18:34:58;17.50;99.90
41985;DHT22;28319;48.116;10.818;2022-10-17T18:40:00;17.50;99.90
41985;DHT22;28319;48.116;10.818;2022-10-17T18:45:03;17.40;99.90
41985;DHT22;28319;48.116;10.818;2022-10-17T18:50:08;17.20;99.90
41985;DHT22;28319;48.116;10.818;2022-10-17T18:55:10;17.20;99.90
41985;DHT22;28319;48.116;10.818;2022-10-17T19:00:13;17.20;99.90
41985;DHT22;28319;48.116;10.818;2022-10-17T19:05:17;17.10;99.90
41985;DHT22;28319;48.116;10.818;2022-10-17T19:10:19;17.00;99.90
41985;DHT22;28319;48.116;10.818;2022-10-17T19:15:21;16.90;99.90
41985;DHT22;28319;48.116;10.818;2022-10-17T19:20:25;16.80;99.90
41985;DHT22;28319;48.116;10.818;2022-10-17T19:25:27;16.90;99.90
41985;DHT22;28319;48.116;10.818;2022-10-17T19:30:30;16.70;99.90
41985;DHT22;28319;48.116;10.818;2022-10-17T19:35:33;16.70;99.90
41985;DHT22;28319;48.116;10.818;2022-10-17T19:40:39;16.60;99.90
41985;DHT22;28319;48.116;10.818;2022-10-17T19:45:41;16.70;99.90
41985;DHT22;28319;48.116;10.818;2022-10-17T19:50:45;16.70;99.90
41985;DHT22;28319;48.116;10.818;2022-10-17T19:55:46;16.60;99.90
41985;DHT22;28319;48.116;10.818;2022-10-17T20:00:50;16.50;99.90
41985;DHT22;28319;48.116;10.818;2022-10-17T20:05:55;16.40;99.90
41985;DHT22;28319;48.116;10.818;2022-10-17T20:11:01;16.20;99.90
41985;DHT22;28319;48.116;10.818;2022-10-17T20:16:05;16.20;99.90
41985;DHT22;28319;48.116;10.818;2022-10-17T20:21:10;16.10;99.90
41985;DHT22;28319;48.116;10.818;2022-10-17T20:26:15;16.00;99.90
41985;DHT22;28319;48.116;10.818;2022-10-17T20:31:18;16.10;99.90
41985;DHT22;28319;48.116;10.818;2022-10-17T20:36:21;16.10;99.90
41985;DHT22;28319;48.116;10.818;2022-10-17T20:41:24;16.00;99.90
41985;DHT22;28319;48.116;10.818;2022-10-17T20:46:27;16.00;99.90
41985;DHT22;28319;48.116;10.818;2022-10-17T20:51:31;16.00;99.90
41985;DHT22;28319;48.116;10.818;2022-10-17T20:56:34;15.80;99.90
41985;DHT22;28319;48.116;10.818;2022-10-17T21:01:36;15.80;99.90
41985;DHT22;28319;48.116;10.818;2022-10-17T21:06:40;15.60;99.90
41985;DHT22;28319;48.116;10.818;2022-10-17T21:11:42;15.40;99.90
41985;DHT22;28319;48.116;10.818;2022-10-17T21:16:44;15.20;99.90
41985;DHT22;28319;48.116;10.818;2022-10-17T21:21:48;15.10;99.90
41985;DHT22;28319;48.116;10.818;2022-10-17T21:26:50;15.10;99.90
41985;DHT22;28319;48.116;10.818;2022-10-17T21:31:55;15.00;99.90
41985;DHT22;28319;48.116;10.818;2022-10-17T21:36:58;15.10;99.90
41985;DHT22;28319;48.116;10.818;2022-10-17T21:42:00;15.10;99.90
41985;DHT22;28319;48.116;10.818;2022-10-17T21:47:02;15.10;99.90
41985;DHT22;28319;48.116;10.818;2022-10-17T21:52:06;14.90;99.90
41985;DHT22;28319;48.116;10.818;2022-10-17T21:57:08;14.80;99.90
41985;DHT22;28319;48.116;10.818;2022-10-17T22:02:10;14.90;99.90
41985;DHT22;28319;48.116;10.818;2022-10-17T22:07:15;14.50;99.90
41985;DHT22;28319;48.116;10.818;2022-10-17T22:12:17;14.80;99.90
41985;DHT22;28319;48.116;10.818;2022-10-17T22:17:20;14.60;99.90
41985;DHT22;28319;48.116;10.818;2022-10-17T22:22:23;14.60;99.90
41985;DHT22;28319;48.116;10.818;2022-10-17T22:27:27;14.40;99.90
41985;DHT22;28319;48.116;10.818;2022-10-17T22:32:29;14.20;99.90
41985;DHT22;28319;48.116;10.818;2022-10-17T22:37:32;14.30;99.90
41985;DHT22;28319;48.116;10.818;2022-10-17T22:42:34;14.50;99.90
41985;DHT22;28319;48.116;10.818;2022-10-17T22:47:37;14.60;99.90
41985;DHT22;28319;48.116;10.818;2022-10-17T22:52:40;14.60;99.90
41985;DHT22;28319;48.116;10.818;2022-10-17T22:57:42;14.50;99.90
41985;DHT22;28319;48.116;10.818;2022-10-17T23:02:44;14.40;99.90
41985;DHT22;28319;48.116;10.818;2022-10-17T23:07:48;14.50;99.90
41985;DHT22;28319;48.116;10.818;2022-10-17T23:12:50;14.00;99.90
41985;DHT22;28319;48.116;10.818;2022-10-17T23:17:52;13.90;99.90
41985;DHT22;28319;48.116;10.818;2022-10-17T23:22:56;13.90;99.90
41985;DHT22;28319;48.116;10.818;2022-10-17T23:27:58;14.10;99.90
41985;DHT22;28319;48.116;10.818;2022-10-17T23:33:01;14.20;99.90
41985;DHT22;28319;48.116;10.818;2022-10-17T23:38:04;14.20;99.90
41985;DHT22;28319;48.116;10.818;2022-10-17T23:43:06;14.20;99.90
41985;DHT22;28319;48.116;10.818;2022-10-17T23:48:08;14.10;99.90
41985;DHT22;28319;48.116;10.818;2022-10-17T23:53:12;14.10;99.90
41985;DHT22;28319;48.116;10.818;2022-10-17T23:58:14;14.00;99.90
